Rosholt, Wisconsin
Current Conditions -  °F | °C
As of 2:55 PM on Saturday 25 Oct 2014 (Local Time) from KSTE Reporting Station
Clear Clear  
Wind Chill: 60°   Ceiling: Unl
Heat Index: 60°   Visibility: 10mi
Dew Point: 29°   Wind: 16mph
Humidity: 32%   Direction: 280°W
Pressure: 29.89"   Gusts: 28mph
Location:  44.63°N, 89.31°W
Report Text: KSTE 251955Z AUTO 28014G24KT 10SM CLR 15/M01 A2989 RMK AO2 T01531014
Loading
Personal Weather Stations






























Interactive Weather Map
Tropical Storm Tracking
New forecast layout! Learn more

10-Day Weather Forecast

Advertisements
Track Severe Weather on mobile